Millville, NJ (08332)

2:08 AM EST on November 26, 2014 (GMT -0500)
Millville Municipal | Change Station
CLOSE
Current Station
Airport
Location: Millville,
Elevation: 82 ft
Nearby Weather Stations

Elev 82 ft 39.37 °N, 75.08 °W | Updated 14 minutes ago

Overcast
Overcast
45 °F
Feels Like 42 °F
N
6
Wind Variable Wind from South

Today
High -- | Low -- °F
--% Chance of Precip.
Yesterday
High -- | Low -- °F
Precip. -- in
6:55 AM 4:38 PM
Waxing Crescent, 17% visible
Pressure 30.16 in
Visibility 10.0 miles
Clouds Scattered Clouds 6500 ft
Overcast 8500 ft
Windchill 42 °F
Dew Point 40 °F
Humidity 82%
Rainfall 0.00 in
Snow Depth Not available.
UV 0 out of 12
Pollen .10 out of 12
Air Quality Not available.
Flu Activity Not available.
METAR KMIV 260654Z AUTO 19005KT 10SM SCT065 OVC085 07/04 A3016 RMK AO2 RAB02E49 SLP213 P0000 T00720044

More Conditions Fewer Conditions

Pressure 30.16 in
Visibility 10.0 miles
Clouds Scattered Clouds 6500 ft
Overcast 8500 ft
Windchill 42 °F
Dew Point 40 °F
Humidity 82%
Rainfall 0.00 in
Snow Depth Not available.
UV 0 out of 12
Pollen .10 out of 12
Air Quality Not available.
Flu Activity Not available.
METAR KMIV 260654Z AUTO 19005KT 10SM SCT065 OVC085 07/04 A3016 RMK AO2 RAB02E49 SLP213 P0000 T00720044

More Conditions Fewer Conditions

10-Day Weather Forecast

Almanac

Astronomy

Nov. 26, 2014 Rise Set
Actual Time
Civil Twilight
Nautical Twilight
Astronomical Twilight
Moon
Length of Visible Light
Length of Day
Tomorrow will be .
, % of the Moon is Illuminated

Today's Extremes

State Highs State Lows

Community

WunderPhotos

Upload Photos

1,773,694 photos uploaded!

WunderBlogs® & News

Nearby

Air Quality

  Air Quality AQ Index Pollutant
Not available.

Snow Depth

Station Depth Elevation

Earthquake Activity

City Distance Mag. Time & Date
Minimum magnitude displayed is 2.5.

Coastal Water Temperatures

Place Temperature

Nearby Weather Stations